Time;durP1;ratioP1;P1;durP2;ratioP2;P2;SDS_P1;SDS_P2;PMS_P1;PMS_P2;Temp;Humidity;BMP_temperature;BMP_pressure;BME280_temperature;BME280_humidity;BME280_pressure;Samples;Min_cycle;Max_cycle;Signal;HPM_P1;HPM_P2
2022/01/13 00:00:51;;;;;;;1.17;1.10;;;;;;;2.80;100.00;102726.84;5034903;28;20505;-52
2022/01/13 00:03:17;;;;;;;0.20;0.10;;;;;;;2.89;100.00;102726.34;5034786;28;21003;-51
2022/01/13 00:05:44;;;;;;;1.03;1.03;;;;;;;3.10;100.00;102731.59;5034794;28;20456;-51
2022/01/13 00:08:11;;;;;;;0.20;0.10;;;;;;;2.95;100.00;102731.84;5034637;28;20473;-52
2022/01/13 00:10:37;;;;;;;0.20;0.10;;;;;;;3.04;100.00;102742.75;5034564;28;20448;-51
2022/01/13 00:13:09;;;;;;;0.20;0.10;;;;;;;3.05;100.00;102738.38;5034586;28;20444;-54
2022/01/13 00:15:49;;;;;;;0.20;0.10;;;;;;;3.10;100.00;102740.34;5024178;28;20501;-52
2022/01/13 00:18:37;;;;;;;0.20;0.10;;;;;;;3.25;100.00;102732.22;5034392;28;20486;-51
2022/01/13 00:23:52;;;;;;;0.20;0.10;;;;;;;3.18;100.00;102732.81;5021623;28;20491;-52
2022/01/13 00:26:24;;;;;;;0.20;0.10;;;;;;;3.13;100.00;102724.72;5034486;28;20475;-52
2022/01/13 00:28:53;;;;;;;0.40;0.40;;;;;;;3.37;100.00;102731.81;5034396;28;20490;-52
2022/01/13 00:31:26;;;;;;;0.20;0.10;;;;;;;3.24;100.00;102726.06;5034173;28;20451;-52
2022/01/13 00:33:57;;;;;;;0.20;0.10;;;;;;;3.26;100.00;102731.38;5034565;28;20478;-52
2022/01/13 00:36:30;;;;;;;0.20;0.10;;;;;;;3.37;100.00;102730.06;5034381;28;20502;-52
2022/01/13 00:38:57;;;;;;;0.20;0.10;;;;;;;3.40;100.00;102732.81;5034268;28;21058;-52
2022/01/13 00:41:29;;;;;;;0.20;0.20;;;;;;;3.37;100.00;102732.69;5034030;28;20458;-52
2022/01/13 00:43:57;;;;;;;0.20;0.10;;;;;;;3.65;100.00;102728.53;5034193;28;20483;-53
2022/01/13 00:46:27;;;;;;;0.20;0.10;;;;;;;3.36;100.00;102730.00;5034221;28;20475;-52
2022/01/13 00:48:55;;;;;;;0.20;0.10;;;;;;;3.48;100.00;102738.41;5033668;28;20837;-52
2022/01/13 00:51:24;;;;;;;0.20;0.10;;;;;;;3.25;100.00;102735.72;5034157;28;20528;-52
2022/01/13 00:53:52;;;;;;;0.20;0.10;;;;;;;3.38;100.00;102738.84;5033831;28;20509;-52
2022/01/13 00:56:18;;;;;;;0.20;0.10;;;;;;;3.52;100.00;102733.31;5033914;28;20871;-52
2022/01/13 00:58:45;;;;;;;0.30;0.20;;;;;;;3.29;100.00;102734.16;5033725;28;20890;-52
2022/01/13 01:01:12;;;;;;;0.20;0.10;;;;;;;3.15;100.00;102728.31;5033858;28;20474;-52
2022/01/13 01:03:39;;;;;;;0.20;0.20;;;;;;;3.21;100.00;102733.81;5033565;28;21017;-52
2022/01/13 01:06:06;;;;;;;0.20;0.10;;;;;;;3.19;100.00;102734.59;5033809;28;20502;-52
2022/01/13 01:08:33;;;;;;;0.20;0.10;;;;;;;3.21;100.00;102730.28;5033376;28;20497;-52
2022/01/13 01:11:02;;;;;;;0.20;0.10;;;;;;;3.15;100.00;102730.03;5016289;28;20444;-52
2022/01/13 01:13:33;;;;;;;0.20;0.10;;;;;;;3.15;100.00;102736.22;5033468;28;20991;-51
2022/01/13 01:16:05;;;;;;;0.20;0.20;;;;;;;3.05;100.00;102735.75;5033882;28;20501;-51
2022/01/13 01:23:55;;;;;;;0.20;0.10;;;;;;;3.14;100.00;102739.63;5033597;28;20537;-51
2022/01/13 01:26:34;;;;;;;0.37;0.37;;;;;;;3.04;100.00;102740.13;5033375;28;20443;-51
2022/01/13 01:31:38;;;;;;;0.20;0.10;;;;;;;3.26;100.00;102748.03;5033083;28;20852;-51
2022/01/13 01:36:32;;;;;;;0.20;0.10;;;;;;;3.27;100.00;102749.81;5033149;28;20823;-51
2022/01/13 01:38:59;;;;;;;0.20;0.10;;;;;;;3.19;100.00;102738.13;5033348;28;21054;-51
2022/01/13 01:41:27;;;;;;;0.20;0.10;;;;;;;3.22;100.00;102747.84;5019896;28;20451;-51
2022/01/13 01:43:57;;;;;;;0.30;0.30;;;;;;;3.17;100.00;102749.41;5032881;28;20492;-51
2022/01/13 01:46:26;;;;;;;0.20;0.10;;;;;;;3.16;100.00;102758.13;5033176;28;20475;-51
2022/01/13 01:48:53;;;;;;;0.40;0.40;;;;;;;3.16;100.00;102755.50;5032738;28;20472;-51
2022/01/13 01:51:19;;;;;;;0.20;0.10;;;;;;;3.34;100.00;102756.25;5033043;28;20453;-51
2022/01/13 01:53:46;;;;;;;0.30;0.20;;;;;;;3.18;100.00;102759.97;5032869;28;20448;-51
2022/01/13 01:56:13;;;;;;;0.20;0.10;;;;;;;3.17;100.00;102758.19;5032838;28;20506;-51
2022/01/13 01:58:39;;;;;;;0.20;0.10;;;;;;;3.22;100.00;102753.09;5032436;28;20491;-52
2022/01/13 02:01:06;;;;;;;1.70;0.77;;;;;;;3.51;100.00;102762.19;5031983;28;20452;-51
2022/01/13 02:03:33;;;;;;;0.20;0.10;;;;;;;3.46;100.00;102763.72;5032491;28;20492;-51
2022/01/13 02:06:00;;;;;;;0.20;0.10;;;;;;;3.31;100.00;102755.22;5032750;28;20447;-51
2022/01/13 02:08:26;;;;;;;0.20;0.10;;;;;;;3.29;100.00;102749.91;5032395;28;20530;-51
2022/01/13 02:10:53;;;;;;;0.20;0.10;;;;;;;3.36;100.00;102745.78;5032476;28;20447;-52
2022/01/13 02:13:23;;;;;;;0.30;0.20;;;;;;;3.32;100.00;102741.25;5032348;28;20791;-51
2022/01/13 02:16:06;;;;;;;0.20;0.10;;;;;;;3.20;100.00;102739.91;5032516;28;21023;-51
2022/01/13 02:18:33;;;;;;;0.20;0.10;;;;;;;3.22;100.00;102734.72;5032371;28;20509;-51
2022/01/13 02:21:01;;;;;;;0.20;0.10;;;;;;;3.24;100.00;102728.69;5032312;28;20451;-52
2022/01/13 02:23:38;;;;;;;0.20;0.10;;;;;;;3.19;100.00;102724.97;5032209;28;20514;-51
2022/01/13 02:26:09;;;;;;;0.20;0.10;;;;;;;3.27;100.00;102731.44;5032456;28;20486;-51
2022/01/13 02:28:36;;;;;;;0.20;0.20;;;;;;;3.31;100.00;102723.69;5032424;28;20464;-52
2022/01/13 02:31:03;;;;;;;0.23;0.13;;;;;;;3.26;100.00;102719.13;5032271;28;20998;-52
2022/01/13 02:33:30;;;;;;;0.20;0.20;;;;;;;3.27;100.00;102726.16;5032287;28;20458;-52
2022/01/13 02:35:56;;;;;;;0.20;0.10;;;;;;;3.18;100.00;102723.19;5032081;28;20459;-52
2022/01/13 02:38:23;;;;;;;0.20;0.10;;;;;;;3.24;100.00;102722.53;5032171;28;21029;-52
2022/01/13 02:40:55;;;;;;;0.20;0.20;;;;;;;3.39;100.00;102711.72;5032288;28;20506;-51
2022/01/13 02:43:23;;;;;;;0.20;0.10;;;;;;;3.55;100.00;102714.13;5032082;28;20561;-52
2022/01/13 02:46:18;;;;;;;0.30;0.20;;;;;;;3.82;100.00;102711.66;5032216;28;20479;-52
2022/01/13 02:48:39;;;;;;;0.20;0.10;;;;;;;3.65;100.00;102707.50;5031205;28;20527;-52
2022/01/13 02:51:06;;;;;;;0.20;0.10;;;;;;;3.40;100.00;102705.63;5032186;28;20475;-52
2022/01/13 02:53:32;;;;;;;0.20;0.10;;;;;;;3.23;100.00;102703.25;5032036;28;20879;-52
2022/01/13 02:56:04;;;;;;;0.20;0.10;;;;;;;3.26;100.00;102703.34;5031991;28;20953;-52
2022/01/13 02:58:33;;;;;;;0.20;0.10;;;;;;;3.56;100.00;102708.97;5031960;28;20566;-52
2022/01/13 03:01:01;;;;;;;0.20;0.10;;;;;;;3.31;100.00;102711.44;5031811;28;20804;-52
2022/01/13 03:03:30;;;;;;;0.20;0.10;;;;;;;3.31;100.00;102711.44;5032004;28;20495;-54
2022/01/13 03:05:57;;;;;;;0.20;0.10;;;;;;;3.18;100.00;102725.81;5032098;28;20505;-52
2022/01/13 03:08:23;;;;;;;0.20;0.10;;;;;;;3.21;100.00;102725.94;5031937;28;20467;-51
2022/01/13 03:10:50;;;;;;;0.20;0.10;;;;;;;3.26;100.00;102727.00;5014422;28;20440;-52
2022/01/13 03:13:18;;;;;;;0.20;0.10;;;;;;;3.30;100.00;102729.78;5034946;28;20471;-52
2022/01/13 03:15:45;;;;;;;0.20;0.10;;;;;;;3.27;100.00;102725.28;5035686;28;20800;-52
2022/01/13 03:18:11;;;;;;;0.20;0.10;;;;;;;3.30;100.00;102725.44;5035772;28;20475;-51
2022/01/13 03:20:38;;;;;;;0.30;0.20;;;;;;;3.28;100.00;102729.69;5035874;28;20459;-52
2022/01/13 03:23:05;;;;;;;0.20;0.10;;;;;;;3.26;100.00;102721.75;5035673;28;20484;-52
2022/01/13 03:25:32;;;;;;;0.20;0.10;;;;;;;3.16;100.00;102724.88;5035744;28;20517;-52
2022/01/13 03:28:05;;;;;;;0.50;0.50;;;;;;;3.22;100.00;102726.84;5035469;28;20452;-52
2022/01/13 03:30:32;;;;;;;0.20;0.10;;;;;;;3.22;100.00;102722.47;5035856;28;20453;-51
2022/01/13 03:33:00;;;;;;;0.20;0.10;;;;;;;3.23;100.00;102724.25;5035505;28;20485;-52
2022/01/13 03:35:27;;;;;;;0.20;0.10;;;;;;;3.20;100.00;102726.78;5035568;28;20459;-52
2022/01/13 03:37:54;;;;;;;0.20;0.20;;;;;;;3.18;100.00;102736.31;5035378;28;20455;-51
2022/01/13 03:40:20;;;;;;;2.00;2.00;;;;;;;3.15;100.00;102730.97;5035461;28;20451;-52
2022/01/13 03:42:48;;;;;;;0.20;0.10;;;;;;;3.13;100.00;102743.09;5035067;28;20491;-51
2022/01/13 03:45:14;;;;;;;0.20;0.10;;;;;;;3.15;100.00;102736.22;5035386;28;20447;-51
2022/01/13 03:47:41;;;;;;;0.20;0.10;;;;;;;3.18;100.00;102744.22;5035266;28;20510;-52
2022/01/13 03:50:08;;;;;;;0.20;0.10;;;;;;;3.24;100.00;102747.06;5035212;28;20529;-51
2022/01/13 03:52:57;;;;;;;0.20;0.10;;;;;;;3.26;100.00;102745.41;5035060;28;20533;-52
2022/01/13 03:55:38;;;;;;;0.20;0.10;;;;;;;3.33;100.00;102740.41;5034909;28;20506;-51
2022/01/13 03:58:24;;;;;;;0.30;0.20;;;;;;;3.32;100.00;102741.25;5034958;28;20481;-51
2022/01/13 04:01:23;;;;;;;0.20;0.10;;;;;;;3.28;100.00;102734.94;5035000;28;20443;-52
2022/01/13 04:03:49;;;;;;;0.20;0.10;;;;;;;3.25;100.00;102730.47;4995109;28;20578;-51
2022/01/13 04:06:16;;;;;;;0.20;0.10;;;;;;;3.27;100.00;102731.44;5035039;28;20506;-51
2022/01/13 04:08:47;;;;;;;0.57;0.57;;;;;;;3.30;100.00;102720.16;5034678;28;20479;-51
2022/01/13 04:11:17;;;;;;;0.97;0.87;;;;;;;3.20;100.00;102723.25;5034692;28;20494;-52
2022/01/13 04:16:18;;;;;;;0.30;0.27;;;;;;;3.26;100.00;102715.59;5034626;28;20456;-52
2022/01/13 04:18:46;;;;;;;0.20;0.10;;;;;;;3.20;100.00;102718.00;5034813;28;20555;-52
2022/01/13 04:21:13;;;;;;;0.20;0.10;;;;;;;3.48;100.00;102715.63;5034557;28;20455;-52
2022/01/13 04:23:40;;;;;;;0.20;0.10;;;;;;;3.38;100.00;102709.94;5033345;28;21058;-52
2022/01/13 04:26:07;;;;;;;0.20;0.10;;;;;;;3.38;100.00;102717.81;5034493;28;20491;-52
2022/01/13 04:28:35;;;;;;;0.20;0.10;;;;;;;3.23;100.00;102712.84;5034324;28;20472;-52
2022/01/13 04:31:02;;;;;;;0.20;0.10;;;;;;;3.19;100.00;102717.09;5034515;28;20795;-53
2022/01/13 04:33:37;;;;;;;0.30;0.20;;;;;;;3.15;100.00;102719.50;5034592;28;20444;-52
2022/01/13 04:36:06;;;;;;;0.20;0.10;;;;;;;3.11;100.00;102705.38;5034266;28;20504;-52
2022/01/13 04:38:33;;;;;;;0.20;0.20;;;;;;;3.06;100.00;102706.03;5016689;28;20463;-52
2022/01/13 04:41:02;;;;;;;0.20;0.10;;;;;;;3.26;100.00;102705.09;5034158;28;20463;-52
2022/01/13 04:43:30;;;;;;;0.20;0.10;;;;;;;3.20;100.00;102707.47;5034313;28;20569;-52
2022/01/13 04:45:57;;;;;;;0.20;0.10;;;;;;;3.09;100.00;102707.03;5034433;28;20483;-52
2022/01/13 04:48:24;;;;;;;0.20;0.10;;;;;;;2.98;100.00;102703.06;5034130;28;20533;-52
2022/01/13 04:50:51;;;;;;;0.20;0.10;;;;;;;2.95;100.00;102700.31;5034104;28;20451;-52
2022/01/13 04:53:18;;;;;;;0.20;0.10;;;;;;;2.99;100.00;102696.97;5034048;28;20796;-52
2022/01/13 04:55:56;;;;;;;0.20;0.13;;;;;;;3.03;100.00;102700.66;5033687;28;20444;-52
2022/01/13 04:58:23;;;;;;;0.20;0.10;;;;;;;3.13;100.00;102694.91;5033953;28;20495;-52
2022/01/13 05:00:51;;;;;;;1.40;1.40;;;;;;;3.04;100.00;102698.09;5033992;28;20875;-52
2022/01/13 05:03:18;;;;;;;0.20;0.10;;;;;;;3.28;100.00;102703.41;5033700;28;20488;-52
2022/01/13 05:05:44;;;;;;;0.20;0.10;;;;;;;3.48;100.00;102702.47;5034279;28;20455;-52
2022/01/13 05:08:11;;;;;;;5.50;1.80;;;;;;;3.05;100.00;102707.75;5033625;28;20914;-51
2022/01/13 05:10:38;;;;;;;0.20;0.10;;;;;;;2.96;100.00;102708.25;5033788;28;20502;-51
2022/01/13 05:13:08;;;;;;;0.20;0.10;;;;;;;2.98;100.00;102705.69;5033714;28;20452;-55
2022/01/13 05:15:37;;;;;;;0.20;0.10;;;;;;;2.82;100.00;102701.53;5023240;28;20463;-51
2022/01/13 05:18:18;;;;;;;0.30;0.20;;;;;;;2.88;100.00;102707.06;5033333;28;20878;-51
2022/01/13 05:20:48;;;;;;;0.20;0.20;;;;;;;2.93;100.00;102708.13;5033496;28;20980;-51
2022/01/13 05:23:16;;;;;;;0.20;0.10;;;;;;;3.02;100.00;102707.63;5033654;28;20511;-51
2022/01/13 05:25:44;;;;;;;0.20;0.10;;;;;;;2.97;100.00;102703.91;5033533;28;20451;-51
2022/01/13 05:28:11;;;;;;;0.20;0.10;;;;;;;2.92;100.00;102692.31;5033347;28;20546;-51
2022/01/13 05:30:38;;;;;;;0.83;0.83;;;;;;;2.97;100.00;102706.53;5033353;28;20451;-51
2022/01/13 05:33:04;;;;;;;0.20;0.10;;;;;;;3.33;100.00;102709.78;5033263;28;20498;-51
2022/01/13 05:35:32;;;;;;;0.20;0.10;;;;;;;3.20;100.00;102705.75;5033341;28;20448;-50
2022/01/13 05:37:59;;;;;;;0.90;0.83;;;;;;;3.08;100.00;102701.72;5033028;28;20498;-51
2022/01/13 05:40:25;;;;;;;0.20;0.10;;;;;;;3.00;100.00;102704.03;5033380;28;20456;-51
2022/01/13 05:42:52;;;;;;;0.20;0.10;;;;;;;2.95;100.00;102701.22;5033389;28;20451;-51
2022/01/13 05:45:21;;;;;;;0.20;0.10;;;;;;;3.23;100.00;102702.34;5033272;28;20506;-51
2022/01/13 05:47:50;;;;;;;0.20;0.10;;;;;;;3.21;100.00;102698.75;5032731;28;20455;-51
2022/01/13 05:50:18;;;;;;;0.20;0.13;;;;;;;2.96;100.00;102710.00;5033023;28;20929;-51
2022/01/13 05:52:46;;;;;;;0.30;0.30;;;;;;;3.03;100.00;102714.69;5033051;28;20452;-51
2022/01/13 05:55:13;;;;;;;0.20;0.20;;;;;;;3.13;100.00;102711.56;5033017;28;20474;-51
2022/01/13 05:57:40;;;;;;;0.20;0.10;;;;;;;2.91;100.00;102715.06;5032839;28;20846;-51
2022/01/13 06:00:10;;;;;;;0.20;0.10;;;;;;;2.97;100.00;102723.19;5032434;28;20538;-51
2022/01/13 06:02:38;;;;;;;0.20;0.10;;;;;;;3.17;100.00;102720.50;5032507;28;20478;-51
2022/01/13 06:05:07;;;;;;;0.20;0.10;;;;;;;3.32;100.00;102723.75;5032535;28;20923;-51
2022/01/13 06:07:33;;;;;;;1.70;1.17;;;;;;;3.21;100.00;102732.91;5032721;28;20452;-52
2022/01/13 06:10:01;;;;;;;0.20;0.10;;;;;;;3.13;100.00;102729.97;5032643;28;20502;-51
2022/01/13 06:12:37;;;;;;;0.20;0.10;;;;;;;3.10;100.00;102724.59;5033007;28;20451;-51
2022/01/13 06:15:14;;;;;;;0.20;0.10;;;;;;;2.98;100.00;102735.50;5032531;28;20867;-54
2022/01/13 06:17:42;;;;;;;0.20;0.10;;;;;;;2.91;100.00;102749.22;5032652;28;20497;-52
2022/01/13 06:20:11;;;;;;;0.20;0.10;;;;;;;2.97;100.00;102740.69;5032415;28;20476;-51
2022/01/13 06:22:40;;;;;;;0.20;0.10;;;;;;;3.18;100.00;102736.31;5032418;28;20448;-51
2022/01/13 06:25:08;;;;;;;0.20;0.10;;;;;;;3.05;100.00;102746.28;5032210;28;20499;-51
2022/01/13 06:27:35;;;;;;;0.20;0.10;;;;;;;3.06;100.00;102737.56;5032299;28;21018;-51
2022/01/13 06:30:10;;;;;;;0.30;0.27;;;;;;;2.92;100.00;102736.97;5032049;28;20533;-51
2022/01/13 06:32:38;;;;;;;0.20;0.10;;;;;;;2.94;100.00;102746.72;5032173;28;20448;-51
2022/01/13 06:35:05;;;;;;;0.20;0.10;;;;;;;2.98;100.00;102737.22;5032185;28;20933;-51
2022/01/13 06:37:31;;;;;;;0.20;0.10;;;;;;;2.98;100.00;102738.13;5032092;28;20873;-51
2022/01/13 06:40:00;;;;;;;0.20;0.10;;;;;;;3.05;100.00;102725.25;5032029;28;20478;-51
2022/01/13 06:42:26;;;;;;;0.20;0.10;;;;;;;3.03;100.00;102725.19;5032117;28;20447;-51
2022/01/13 06:44:53;;;;;;;0.20;0.10;;;;;;;2.98;100.00;102732.84;5032009;28;20965;-51
2022/01/13 06:47:19;;;;;;;0.20;0.10;;;;;;;2.88;100.00;102735.06;5035658;28;20479;-52
2022/01/13 06:49:46;;;;;;;0.20;0.10;;;;;;;2.92;100.00;102743.13;5038719;28;20892;-51
2022/01/13 06:52:13;;;;;;;0.20;0.10;;;;;;;2.75;100.00;102738.91;5038515;28;20833;-52
2022/01/13 06:54:40;;;;;;;0.20;0.10;;;;;;;2.63;100.00;102747.13;5038716;28;20451;-52
2022/01/13 06:57:08;;;;;;;0.20;0.20;;;;;;;2.78;100.00;102746.00;5038554;28;20459;-51
2022/01/13 06:59:34;;;;;;;0.20;0.10;;;;;;;2.79;100.00;102746.06;5038506;28;20507;-51
2022/01/13 07:02:02;;;;;;;0.20;0.10;;;;;;;2.84;100.00;102741.88;5038559;28;20451;-53
2022/01/13 07:04:29;;;;;;;0.20;0.10;;;;;;;2.90;100.00;102749.16;5038774;28;20491;-51
2022/01/13 07:06:56;;;;;;;0.20;0.10;;;;;;;2.95;100.00;102752.84;5039003;28;20466;-51
2022/01/13 07:09:23;;;;;;;1.37;1.37;;;;;;;3.08;100.00;102744.66;5038789;28;20471;-51
2022/01/13 07:11:50;;;;;;;0.20;0.10;;;;;;;2.83;100.00;102747.97;5038645;28;20818;-51
2022/01/13 07:14:17;;;;;;;0.20;0.10;;;;;;;2.87;100.00;102747.25;5039006;28;20504;-52
2022/01/13 07:16:45;;;;;;;0.20;0.10;;;;;;;2.85;100.00;102759.44;5038446;28;20455;-51
2022/01/13 07:19:14;;;;;;;0.20;0.10;;;;;;;2.85;100.00;102767.31;5038538;28;20472;-52
2022/01/13 07:21:42;;;;;;;0.20;0.10;;;;;;;2.91;100.00;102770.22;5038437;28;20497;-51
2022/01/13 07:24:08;;;;;;;0.20;0.10;;;;;;;2.81;100.00;102770.66;5038348;28;20487;-53
2022/01/13 07:26:35;;;;;;;0.20;0.10;;;;;;;2.71;100.00;102778.06;5038490;28;20885;-51
2022/01/13 07:29:04;;;;;;;0.20;0.10;;;;;;;2.66;100.00;102770.00;5038413;28;20496;-51
2022/01/13 07:31:31;;;;;;;0.20;0.10;;;;;;;2.60;100.00;102778.50;5038477;28;20517;-52
2022/01/13 07:33:58;;;;;;;0.20;0.10;;;;;;;2.62;100.00;102776.84;5038599;28;20448;-51
2022/01/13 07:36:24;;;;;;;0.20;0.10;;;;;;;2.61;100.00;102782.94;5038991;28;20436;-51
2022/01/13 07:38:51;;;;;;;0.30;0.20;;;;;;;2.61;100.00;102782.03;5038645;28;20475;-51
2022/01/13 07:41:18;;;;;;;0.20;0.10;;;;;;;2.67;100.00;102775.31;5038992;28;20454;-52
2022/01/13 07:43:48;;;;;;;0.20;0.10;;;;;;;2.49;100.00;102785.00;5038720;28;20487;-51
2022/01/13 07:46:15;;;;;;;0.30;0.23;;;;;;;2.60;100.00;102778.50;5038133;28;20454;-52
2022/01/13 07:48:42;;;;;;;0.20;0.10;;;;;;;2.75;100.00;102777.38;5038030;28;20498;-51
2022/01/13 07:51:09;;;;;;;0.30;0.20;;;;;;;2.76;100.00;102780.06;5038597;28;20521;-52
2022/01/13 07:53:35;;;;;;;0.20;0.10;;;;;;;2.79;100.00;102782.81;5038527;28;20529;-51
2022/01/13 07:56:02;;;;;;;0.20;0.10;;;;;;;2.97;100.00;102786.22;5038810;28;20462;-51
2022/01/13 07:58:29;;;;;;;0.20;0.10;;;;;;;2.74;100.00;102784.38;5037359;28;20542;-51
2022/01/13 08:00:55;;;;;;;0.20;0.10;;;;;;;2.73;100.00;102782.53;5035195;28;20451;-51
2022/01/13 08:03:22;;;;;;;0.20;0.10;;;;;;;2.91;100.00;102782.47;5035376;28;20455;-53
2022/01/13 08:05:49;;;;;;;0.20;0.10;;;;;;;2.75;100.00;102791.41;5035132;28;20519;-51
2022/01/13 08:08:15;;;;;;;0.20;0.10;;;;;;;2.61;100.00;102792.53;5035024;28;20522;-52
2022/01/13 08:10:42;;;;;;;0.20;0.10;;;;;;;2.64;100.00;102790.03;5035111;28;20551;-52
2022/01/13 08:13:09;;;;;;;0.20;0.10;;;;;;;2.74;100.00;102778.19;5034852;28;20525;-51
2022/01/13 08:15:36;;;;;;;0.20;0.10;;;;;;;2.71;100.00;102780.69;5034745;28;20501;-52
2022/01/13 08:20:48;;;;;;;0.20;0.10;;;;;;;2.75;100.00;102775.66;5035237;28;20448;-52
2022/01/13 08:23:15;;;;;;;0.20;0.10;;;;;;;3.18;100.00;102775.75;5036185;28;20521;-52
2022/01/13 08:25:42;;;;;;;0.20;0.10;;;;;;;2.95;100.00;102780.03;5034697;28;20530;-51
2022/01/13 08:28:10;;;;;;;0.20;0.10;;;;;;;3.01;100.00;102775.84;5034287;28;21203;-51
2022/01/13 08:30:38;;;;;;;0.20;0.10;;;;;;;3.22;100.00;102779.38;5034966;28;20462;-52
2022/01/13 08:33:05;;;;;;;0.20;0.10;;;;;;;3.03;100.00;102782.09;5034836;28;20478;-51
2022/01/13 08:35:32;;;;;;;0.20;0.10;;;;;;;2.77;100.00;102783.59;5034743;28;20506;-52
2022/01/13 08:38:05;;;;;;;0.20;0.10;;;;;;;2.66;100.00;102781.41;5034556;28;20447;-51
2022/01/13 08:40:34;;;;;;;0.20;0.10;;;;;;;2.90;100.00;102783.28;5034409;28;20444;-51
2022/01/13 08:43:04;;;;;;;0.20;0.10;;;;;;;2.74;100.00;102784.38;5034815;28;20451;-52
2022/01/13 08:45:30;;;;;;;0.20;0.10;;;;;;;2.93;100.00;102781.69;5034320;28;20523;-52
2022/01/13 08:47:57;;;;;;;0.20;0.10;;;;;;;2.83;100.00;102770.72;5021189;28;20456;-51
2022/01/13 08:50:24;;;;;;;0.20;0.10;;;;;;;2.83;100.00;102770.72;5034232;28;20525;-51
2022/01/13 08:52:50;;;;;;;0.20;0.10;;;;;;;2.83;100.00;102770.72;5021273;28;20458;-53
2022/01/13 08:55:17;;;;;;;0.40;0.40;;;;;;;2.88;100.00;102779.72;5033932;28;20948;-52
2022/01/13 08:57:44;;;;;;;0.20;0.10;;;;;;;3.02;100.00;102773.31;5034502;28;20455;-52
2022/01/13 09:00:12;;;;;;;0.20;0.10;;;;;;;3.02;100.00;102768.06;5033781;28;20487;-52
2022/01/13 09:02:42;;;;;;;0.20;0.10;;;;;;;3.11;100.00;102770.16;5034076;28;20443;-51
2022/01/13 09:05:12;;;;;;;0.33;0.33;;;;;;;3.03;100.00;102771.59;5034018;28;20488;-51
2022/01/13 09:07:39;;;;;;;0.20;0.10;;;;;;;3.01;100.00;102766.22;5033986;28;20867;-51
2022/01/13 09:10:07;;;;;;;0.20;0.20;;;;;;;3.22;100.00;102775.03;5033364;28;20467;-52
2022/01/13 09:12:34;;;;;;;0.20;0.10;;;;;;;3.23;100.00;102773.28;5033951;28;20452;-51
2022/01/13 09:15:15;;;;;;;0.30;0.20;;;;;;;3.27;100.00;102777.84;5033772;28;20443;-51
2022/01/13 09:17:44;;;;;;;0.20;0.10;;;;;;;3.13;100.00;102782.53;5033831;28;20448;-51
2022/01/13 09:20:13;;;;;;;0.20;0.10;;;;;;;3.08;100.00;102786.69;5033272;28;20471;-51
2022/01/13 09:22:40;;;;;;;0.20;0.10;;;;;;;2.88;100.00;102787.59;5033778;28;20510;-52
2022/01/13 09:25:07;;;;;;;0.20;0.10;;;;;;;2.64;100.00;102787.41;5033648;28;20576;-51
2022/01/13 09:27:35;;;;;;;0.30;0.20;;;;;;;2.59;100.00;102792.44;5033646;28;20458;-51
2022/01/13 09:30:02;;;;;;;0.20;0.10;;;;;;;2.70;100.00;102789.41;5033210;28;21038;-52
2022/01/13 09:32:28;;;;;;;0.20;0.20;;;;;;;2.88;100.00;102785.88;5033478;28;20447;-51
2022/01/13 09:34:55;;;;;;;0.20;0.10;;;;;;;2.77;100.00;102787.13;5033146;28;20456;-51
2022/01/13 09:37:24;;;;;;;0.20;0.10;;;;;;;3.13;100.00;102793.03;5033590;28;20443;-52
2022/01/13 09:39:51;;;;;;;0.20;0.10;;;;;;;2.68;100.00;102791.97;5033175;28;20471;-52
2022/01/13 09:42:18;;;;;;;0.30;0.10;;;;;;;2.76;100.00;102801.09;5033154;28;20474;-52
2022/01/13 09:44:46;;;;;;;0.20;0.10;;;;;;;2.88;100.00;102791.13;5019920;28;20546;-52
2022/01/13 09:47:13;;;;;;;0.20;0.10;;;;;;;2.69;100.00;102804.25;5033394;28;20822;-52
2022/01/13 09:49:43;;;;;;;0.20;0.20;;;;;;;2.81;100.00;102796.91;5033083;28;20467;-52
2022/01/13 09:52:10;;;;;;;0.20;0.10;;;;;;;2.75;100.00;102791.41;5034219;28;20925;-52
2022/01/13 09:54:37;;;;;;;0.20;0.10;;;;;;;3.16;100.00;102798.44;5033311;28;20444;-51
2022/01/13 09:57:03;;;;;;;0.20;0.10;;;;;;;2.74;100.00;102789.63;5032549;28;20447;-52
2022/01/13 09:59:30;;;;;;;0.20;0.10;;;;;;;3.00;100.00;102788.09;5032593;28;20480;-51
2022/01/13 10:01:57;;;;;;;0.20;0.10;;;;;;;3.25;100.00;102795.28;5032645;28;20509;-52
2022/01/13 10:04:23;;;;;;;0.30;0.20;;;;;;;2.68;100.00;102795.47;5032877;28;20513;-52
2022/01/13 10:06:50;;;;;;;0.20;0.10;;;;;;;2.71;100.00;102791.19;5032727;28;20452;-51
2022/01/13 10:09:17;;;;;;;0.20;0.10;;;;;;;2.87;100.00;102789.28;5032504;28;20471;-52
2022/01/13 10:11:58;;;;;;;0.20;0.10;;;;;;;3.09;100.00;102798.09;5032476;28;20452;-52
2022/01/13 10:17:00;;;;;;;0.20;0.10;;;;;;;2.90;100.00;102793.81;5030784;28;20870;-52
2022/01/13 10:19:36;;;;;;;0.20;0.10;;;;;;;2.74;100.00;102788.69;5033027;28;20895;-51
2022/01/13 10:22:09;;;;;;;0.20;0.10;;;;;;;2.78;100.00;102774.88;5019117;28;20455;-53
2022/01/13 10:24:48;;;;;;;0.30;0.30;;;;;;;3.01;100.00;102783.72;5032296;28;20526;-51
2022/01/13 10:27:21;;;;;;;0.20;0.17;;;;;;;2.98;100.00;102789.75;5032706;28;20574;-52
2022/01/13 10:30:07;;;;;;;0.20;0.10;;;;;;;3.06;100.00;102782.22;5032432;28;20479;-53
2022/01/13 10:32:40;;;;;;;0.20;0.10;;;;;;;3.21;100.00;102790.75;5032786;28;20929;-51
2022/01/13 10:35:11;;;;;;;0.20;0.10;;;;;;;2.77;100.00;102789.75;5019961;28;20826;-52
2022/01/13 10:37:42;;;;;;;0.30;0.30;;;;;;;2.94;100.00;102795.72;5032243;28;20501;-52
2022/01/13 10:40:23;;;;;;;0.20;0.10;;;;;;;2.77;100.00;102786.22;5032549;28;20494;-52
2022/01/13 10:45:22;;;;;;;0.20;0.10;;;;;;;2.73;100.00;102795.66;5032187;28;20495;-52
2022/01/13 10:47:54;;;;;;;0.30;0.20;;;;;;;2.85;100.00;102793.59;5031913;28;20452;-52
2022/01/13 10:50:26;;;;;;;0.20;0.10;;;;;;;2.81;100.00;102794.28;5032217;28;20887;-50
2022/01/13 10:52:53;;;;;;;0.20;0.10;;;;;;;2.82;100.00;102797.81;5032221;28;20455;-50
2022/01/13 10:55:22;;;;;;;0.20;0.10;;;;;;;2.84;100.00;102790.91;5031941;28;21018;-51
2022/01/13 10:58:08;;;;;;;0.20;0.10;;;;;;;2.89;100.00;102789.38;5031830;28;20513;-50
2022/01/13 11:00:36;;;;;;;0.20;0.10;;;;;;;2.80;100.00;102789.88;5031861;28;20921;-53
2022/01/13 11:03:10;;;;;;;0.20;0.10;;;;;;;2.87;100.00;102788.38;5014477;28;20447;-51
2022/01/13 11:06:01;;;;;;;0.20;0.10;;;;;;;2.84;100.00;102785.66;5032279;28;20494;-51
2022/01/13 11:08:38;;;;;;;0.70;0.70;;;;;;;2.87;100.00;102785.75;5031768;28;20525;-50
2022/01/13 11:11:28;;;;;;;0.20;0.10;;;;;;;3.07;100.00;102784.91;5015583;28;20444;-51
2022/01/13 11:13:59;;;;;;;0.20;0.13;;;;;;;3.11;100.00;102785.91;5032085;28;20444;-51
2022/01/13 11:16:28;;;;;;;0.20;0.10;;;;;;;2.96;100.00;102783.53;5031786;28;20444;-51
2022/01/13 11:18:58;;;;;;;0.30;0.20;;;;;;;2.94;100.00;102774.72;5031969;28;20494;-51
2022/01/13 11:21:27;;;;;;;0.20;0.10;;;;;;;2.79;100.00;102766.19;5031962;28;20451;-51
2022/01/13 11:23:56;;;;;;;0.20;0.10;;;;;;;2.64;100.00;102767.31;5031822;28;20452;-50
2022/01/13 11:26:27;;;;;;;0.57;0.57;;;;;;;2.57;100.00;102773.09;5031569;28;20527;-50
2022/01/13 11:28:55;;;;;;;0.20;0.10;;;;;;;2.33;100.00;102764.13;5031624;28;20845;-54
2022/01/13 11:31:21;;;;;;;0.20;0.10;;;;;;;2.34;100.00;102771.22;5031377;28;20482;-54
2022/01/13 11:33:49;;;;;;;0.20;0.10;;;;;;;2.62;100.00;102757.56;5034092;28;20448;-54
2022/01/13 11:36:17;;;;;;;0.40;0.40;;;;;;;2.96;100.00;102747.66;5035141;28;21003;-54
2022/01/13 11:38:56;;;;;;;0.73;0.73;;;;;;;2.90;100.00;102743.91;5034993;28;20482;-54
2022/01/13 11:41:23;;;;;;;0.20;0.10;;;;;;;3.03;100.00;102743.59;5017461;28;20509;-54
2022/01/13 11:43:50;;;;;;;0.20;0.10;;;;;;;2.86;100.00;102739.31;5035149;28;20963;-54
2022/01/13 11:46:26;;;;;;;0.20;0.10;;;;;;;3.04;100.00;102734.88;5034991;28;20545;-54
2022/01/13 11:49:11;;;;;;;1.37;0.90;;;;;;;3.07;100.00;102741.97;5034607;28;20978;-54
2022/01/13 11:51:57;;;;;;;0.20;0.10;;;;;;;2.99;100.00;102731.13;5017502;28;20821;-54
2022/01/13 11:54:35;;;;;;;0.20;0.10;;;;;;;2.92;100.00;102731.72;5034850;28;20444;-54
2022/01/13 11:57:25;;;;;;;0.20;0.13;;;;;;;2.79;100.00;102719.81;5034633;28;20458;-54